Аэропорт: Пашковский. Краснодар

ICAO: URKK

METAR:
2019-07-23 18:30:00
URKK 231830Z 08002MPS CAVOK 24/19 Q1009 R23L/CLRD70 NOSIG RMK QFE753
METAR:
2019-07-23 17:00:00
TAF URKK 231700Z 2318/2418 02003G08MPS 9999 SCT030 TEMPO 2318/2405 3100 BR SCT011 SCT030 FM240500 32005G10MPS 9999 BKN030CB TEMPO 2405/2418 VRB07G15MPS 3100 -TSRA SCT011 BKN030CB